sensor_id;sensor_type;location;lat;lon;timestamp;P1;P2;P0
59546;PMS5003;45368;55.002;-1.592;2023-03-16T00:00:22;48;45;
59546;PMS5003;45368;55.002;-1.592;2023-03-16T00:02:49;47;44;
59546;PMS5003;45368;55.002;-1.592;2023-03-16T00:05:17;51;49;
59546;PMS5003;45368;55.002;-1.592;2023-03-16T00:07:44;46;42;
59546;PMS5003;45368;55.002;-1.592;2023-03-16T00:10:12;55;48;
59546;PMS5003;45368;55.002;-1.592;2023-03-16T00:12:39;50;46;
59546;PMS5003;45368;55.002;-1.592;2023-03-16T00:15:07;55;54;
59546;PMS5003;45368;55.002;-1.592;2023-03-16T00:17:35;54;51;
59546;PMS5003;45368;55.002;-1.592;2023-03-16T00:20:03;47;46;
59546;PMS5003;45368;55.002;-1.592;2023-03-16T00:22:31;50;48;
59546;PMS5003;45368;55.002;-1.592;2023-03-16T00:25:00;41;41;
59546;PMS5003;45368;55.002;-1.592;2023-03-16T00:27:27;47;44;
59546;PMS5003;45368;55.002;-1.592;2023-03-16T00:29:54;48;42;
59546;PMS5003;45368;55.002;-1.592;2023-03-16T00:32:23;53;47;
59546;PMS5003;45368;55.002;-1.592;2023-03-16T00:34:52;52;48;
59546;PMS5003;45368;55.002;-1.592;2023-03-16T00:37:20;53;49;
59546;PMS5003;45368;55.002;-1.592;2023-03-16T00:39:48;50;47;
59546;PMS5003;45368;55.002;-1.592;2023-03-16T00:42:16;50;48;
59546;PMS5003;45368;55.002;-1.592;2023-03-16T00:44:44;44;41;
59546;PMS5003;45368;55.002;-1.592;2023-03-16T00:47:11;58;55;
59546;PMS5003;45368;55.002;-1.592;2023-03-16T00:49:39;55;48;
59546;PMS5003;45368;55.002;-1.592;2023-03-16T00:52:09;52;49;
59546;PMS5003;45368;55.002;-1.592;2023-03-16T00:54:37;49;47;
59546;PMS5003;45368;55.002;-1.592;2023-03-16T00:57:05;47;46;
59546;PMS5003;45368;55.002;-1.592;2023-03-16T00:59:32;51;48;
59546;PMS5003;45368;55.002;-1.592;2023-03-16T01:02:00;45;43;
59546;PMS5003;45368;55.002;-1.592;2023-03-16T01:04:27;57;51;
59546;PMS5003;45368;55.002;-1.592;2023-03-16T01:06:55;54;52;
59546;PMS5003;45368;55.002;-1.592;2023-03-16T01:09:22;53;52;
59546;PMS5003;45368;55.002;-1.592;2023-03-16T01:11:50;48;46;
59546;PMS5003;45368;55.002;-1.592;2023-03-16T01:14:17;56;54;
59546;PMS5003;45368;55.002;-1.592;2023-03-16T01:16:44;51;49;
59546;PMS5003;45368;55.002;-1.592;2023-03-16T01:19:13;54;51;
59546;PMS5003;45368;55.002;-1.592;2023-03-16T01:21:40;58;53;
59546;PMS5003;45368;55.002;-1.592;2023-03-16T01:24:08;50;45;
59546;PMS5003;45368;55.002;-1.592;2023-03-16T01:26:36;53;46;
59546;PMS5003;45368;55.002;-1.592;2023-03-16T01:29:03;49;47;
59546;PMS5003;45368;55.002;-1.592;2023-03-16T01:31:31;54;51;
59546;PMS5003;45368;55.002;-1.592;2023-03-16T01:33:59;52;50;
59546;PMS5003;45368;55.002;-1.592;2023-03-16T01:36:26;52;48;
59546;PMS5003;45368;55.002;-1.592;2023-03-16T01:38:54;51;49;
59546;PMS5003;45368;55.002;-1.592;2023-03-16T01:41:21;56;51;
59546;PMS5003;45368;55.002;-1.592;2023-03-16T01:43:48;55;51;
59546;PMS5003;45368;55.002;-1.592;2023-03-16T01:46:19;44;43;
59546;PMS5003;45368;55.002;-1.592;2023-03-16T01:48:51;52;49;
59546;PMS5003;45368;55.002;-1.592;2023-03-16T01:51:25;54;49;
59546;PMS5003;45368;55.002;-1.592;2023-03-16T01:53:57;55;51;
59546;PMS5003;45368;55.002;-1.592;2023-03-16T01:56:29;51;49;
59546;PMS5003;45368;55.002;-1.592;2023-03-16T01:59:01;47;45;
59546;PMS5003;45368;55.002;-1.592;2023-03-16T02:01:33;52;49;
59546;PMS5003;45368;55.002;-1.592;2023-03-16T02:04:03;55;52;
59546;PMS5003;45368;55.002;-1.592;2023-03-16T02:06:38;54;50;
59546;PMS5003;45368;55.002;-1.592;2023-03-16T02:09:06;52;50;
59546;PMS5003;45368;55.002;-1.592;2023-03-16T02:11:34;51;48;
59546;PMS5003;45368;55.002;-1.592;2023-03-16T02:14:05;51;47;
59546;PMS5003;45368;55.002;-1.592;2023-03-16T02:16:35;48;46;
59546;PMS5003;45368;55.002;-1.592;2023-03-16T02:19:03;54;53;
59546;PMS5003;45368;55.002;-1.592;2023-03-16T02:21:37;44;41;
59546;PMS5003;45368;55.002;-1.592;2023-03-16T02:24:13;44;44;
59546;PMS5003;45368;55.002;-1.592;2023-03-16T02:26:42;41;40;
59546;PMS5003;45368;55.002;-1.592;2023-03-16T02:29:16;42;40;
59546;PMS5003;45368;55.002;-1.592;2023-03-16T02:31:52;49;45;
59546;PMS5003;45368;55.002;-1.592;2023-03-16T02:34:22;43;43;
59546;PMS5003;45368;55.002;-1.592;2023-03-16T02:36:51;43;40;
59546;PMS5003;45368;55.002;-1.592;2023-03-16T02:39:19;45;42;
59546;PMS5003;45368;55.002;-1.592;2023-03-16T02:41:47;42;41;
59546;PMS5003;45368;55.002;-1.592;2023-03-16T02:44:15;45;42;
59546;PMS5003;45368;55.002;-1.592;2023-03-16T02:46:46;46;39;
59546;PMS5003;45368;55.002;-1.592;2023-03-16T02:49:15;50;48;
59546;PMS5003;45368;55.002;-1.592;2023-03-16T02:51:46;41;38;
59546;PMS5003;45368;55.002;-1.592;2023-03-16T02:54:14;45;44;
59546;PMS5003;45368;55.002;-1.592;2023-03-16T02:56:42;33;31;
59546;PMS5003;45368;55.002;-1.592;2023-03-16T02:59:10;34;33;
59546;PMS5003;45368;55.002;-1.592;2023-03-16T03:01:38;36;34;
59546;PMS5003;45368;55.002;-1.592;2023-03-16T03:04:05;38;35;
59546;PMS5003;45368;55.002;-1.592;2023-03-16T03:06:33;39;36;
59546;PMS5003;45368;55.002;-1.592;2023-03-16T03:09:01;37;37;
59546;PMS5003;45368;55.002;-1.592;2023-03-16T03:11:29;35;34;
59546;PMS5003;45368;55.002;-1.592;2023-03-16T03:13:56;41;39;
59546;PMS5003;45368;55.002;-1.592;2023-03-16T03:16:24;42;39;
59546;PMS5003;45368;55.002;-1.592;2023-03-16T03:18:52;33;32;
59546;PMS5003;45368;55.002;-1.592;2023-03-16T03:21:18;38;36;
59546;PMS5003;45368;55.002;-1.592;2023-03-16T03:23:47;40;39;
59546;PMS5003;45368;55.002;-1.592;2023-03-16T03:26:14;36;35;
59546;PMS5003;45368;55.002;-1.592;2023-03-16T03:28:42;35;34;
59546;PMS5003;45368;55.002;-1.592;2023-03-16T03:31:12;33;33;
59546;PMS5003;45368;55.002;-1.592;2023-03-16T03:33:40;38;37;
59546;PMS5003;45368;55.002;-1.592;2023-03-16T03:36:07;33;31;
59546;PMS5003;45368;55.002;-1.592;2023-03-16T03:38:36;39;38;
59546;PMS5003;45368;55.002;-1.592;2023-03-16T03:41:04;41;37;
59546;PMS5003;45368;55.002;-1.592;2023-03-16T03:43:31;34;31;
59546;PMS5003;45368;55.002;-1.592;2023-03-16T03:46:00;33;33;
59546;PMS5003;45368;55.002;-1.592;2023-03-16T03:48:29;32;31;
59546;PMS5003;45368;55.002;-1.592;2023-03-16T03:50:56;40;34;
59546;PMS5003;45368;55.002;-1.592;2023-03-16T03:53:23;39;36;
59546;PMS5003;45368;55.002;-1.592;2023-03-16T03:55:51;35;34;
59546;PMS5003;45368;55.002;-1.592;2023-03-16T03:58:19;38;35;
59546;PMS5003;45368;55.002;-1.592;2023-03-16T04:00:46;35;34;
59546;PMS5003;45368;55.002;-1.592;2023-03-16T04:03:13;36;33;
59546;PMS5003;45368;55.002;-1.592;2023-03-16T04:05:41;33;32;
59546;PMS5003;45368;55.002;-1.592;2023-03-16T04:08:08;30;30;
59546;PMS5003;45368;55.002;-1.592;2023-03-16T04:10:36;38;36;
59546;PMS5003;45368;55.002;-1.592;2023-03-16T04:13:03;42;37;
59546;PMS5003;45368;55.002;-1.592;2023-03-16T04:15:30;31;31;
59546;PMS5003;45368;55.002;-1.592;2023-03-16T04:17:58;28;28;
59546;PMS5003;45368;55.002;-1.592;2023-03-16T04:20:25;32;32;
59546;PMS5003;45368;55.002;-1.592;2023-03-16T04:22:53;31;26;
59546;PMS5003;45368;55.002;-1.592;2023-03-16T04:25:20;34;32;
59546;PMS5003;45368;55.002;-1.592;2023-03-16T04:27:48;25;24;
59546;PMS5003;45368;55.002;-1.592;2023-03-16T04:30:15;28;27;
59546;PMS5003;45368;55.002;-1.592;2023-03-16T04:32:42;31;30;
59546;PMS5003;45368;55.002;-1.592;2023-03-16T04:35:10;25;24;
59546;PMS5003;45368;55.002;-1.592;2023-03-16T04:37:37;32;28;
59546;PMS5003;45368;55.002;-1.592;2023-03-16T04:40:09;29;29;
59546;PMS5003;45368;55.002;-1.592;2023-03-16T04:42:37;24;22;
59546;PMS5003;45368;55.002;-1.592;2023-03-16T04:45:04;28;26;
59546;PMS5003;45368;55.002;-1.592;2023-03-16T04:47:32;30;24;
59546;PMS5003;45368;55.002;-1.592;2023-03-16T04:50:01;26;25;
59546;PMS5003;45368;55.002;-1.592;2023-03-16T04:52:28;30;27;
59546;PMS5003;45368;55.002;-1.592;2023-03-16T04:54:55;22;22;
59546;PMS5003;45368;55.002;-1.592;2023-03-16T04:57:22;24;23;
59546;PMS5003;45368;55.002;-1.592;2023-03-16T04:59:50;26;24;
59546;PMS5003;45368;55.002;-1.592;2023-03-16T05:02:17;24;23;
59546;PMS5003;45368;55.002;-1.592;2023-03-16T05:04:45;25;23;
59546;PMS5003;45368;55.002;-1.592;2023-03-16T05:07:12;25;24;
59546;PMS5003;45368;55.002;-1.592;2023-03-16T05:09:40;19;19;
59546;PMS5003;45368;55.002;-1.592;2023-03-16T05:12:08;20;19;
59546;PMS5003;45368;55.002;-1.592;2023-03-16T05:14:35;20;18;
59546;PMS5003;45368;55.002;-1.592;2023-03-16T05:17:03;21;21;
59546;PMS5003;45368;55.002;-1.592;2023-03-16T05:19:29;20;18;
59546;PMS5003;45368;55.002;-1.592;2023-03-16T05:21:58;21;19;
59546;PMS5003;45368;55.002;-1.592;2023-03-16T05:24:26;20;19;
59546;PMS5003;45368;55.002;-1.592;2023-03-16T05:26:54;19;18;
59546;PMS5003;45368;55.002;-1.592;2023-03-16T05:29:21;15;15;
59546;PMS5003;45368;55.002;-1.592;2023-03-16T05:31:48;15;14;
59546;PMS5003;45368;55.002;-1.592;2023-03-16T05:34:16;18;17;
59546;PMS5003;45368;55.002;-1.592;2023-03-16T05:36:43;17;15;
59546;PMS5003;45368;55.002;-1.592;2023-03-16T05:39:10;16;15;
59546;PMS5003;45368;55.002;-1.592;2023-03-16T05:41:36;20;18;
59546;PMS5003;45368;55.002;-1.592;2023-03-16T05:44:04;20;18;
59546;PMS5003;45368;55.002;-1.592;2023-03-16T05:46:36;17;16;
59546;PMS5003;45368;55.002;-1.592;2023-03-16T05:49:08;21;21;
59546;PMS5003;45368;55.002;-1.592;2023-03-16T05:51:35;16;15;
59546;PMS5003;45368;55.002;-1.592;2023-03-16T05:54:03;17;17;
59546;PMS5003;45368;55.002;-1.592;2023-03-16T05:56:29;18;18;
59546;PMS5003;45368;55.002;-1.592;2023-03-16T05:58:57;14;14;
59546;PMS5003;45368;55.002;-1.592;2023-03-16T06:01:25;17;16;
59546;PMS5003;45368;55.002;-1.592;2023-03-16T06:03:52;21;20;
59546;PMS5003;45368;55.002;-1.592;2023-03-16T06:06:20;24;22;
59546;PMS5003;45368;55.002;-1.592;2023-03-16T06:08:48;18;17;
59546;PMS5003;45368;55.002;-1.592;2023-03-16T06:11:16;21;20;
59546;PMS5003;45368;55.002;-1.592;2023-03-16T06:13:42;18;18;
59546;PMS5003;45368;55.002;-1.592;2023-03-16T06:16:09;16;16;
59546;PMS5003;45368;55.002;-1.592;2023-03-16T06:18:37;21;18;
59546;PMS5003;45368;55.002;-1.592;2023-03-16T06:21:04;21;21;
59546;PMS5003;45368;55.002;-1.592;2023-03-16T06:23:31;22;21;
59546;PMS5003;45368;55.002;-1.592;2023-03-16T06:25:58;17;16;
59546;PMS5003;45368;55.002;-1.592;2023-03-16T06:28:31;20;19;
59546;PMS5003;45368;55.002;-1.592;2023-03-16T06:31:03;21;19;
59546;PMS5003;45368;55.002;-1.592;2023-03-16T06:33:30;17;16;
59546;PMS5003;45368;55.002;-1.592;2023-03-16T06:35:58;17;17;
59546;PMS5003;45368;55.002;-1.592;2023-03-16T06:38:27;21;20;
59546;PMS5003;45368;55.002;-1.592;2023-03-16T06:40:54;21;20;
59546;PMS5003;45368;55.002;-1.592;2023-03-16T06:43:21;29;27;
59546;PMS5003;45368;55.002;-1.592;2023-03-16T06:45:49;24;23;
59546;PMS5003;45368;55.002;-1.592;2023-03-16T06:48:16;19;18;
59546;PMS5003;45368;55.002;-1.592;2023-03-16T06:50:43;16;15;
59546;PMS5003;45368;55.002;-1.592;2023-03-16T06:53:11;19;18;
59546;PMS5003;45368;55.002;-1.592;2023-03-16T06:55:38;23;20;
59546;PMS5003;45368;55.002;-1.592;2023-03-16T06:58:05;18;18;
59546;PMS5003;45368;55.002;-1.592;2023-03-16T07:00:33;18;18;
59546;PMS5003;45368;55.002;-1.592;2023-03-16T07:03:01;25;21;
59546;PMS5003;45368;55.002;-1.592;2023-03-16T07:05:29;22;22;
59546;PMS5003;45368;55.002;-1.592;2023-03-16T07:07:57;20;18;
59546;PMS5003;45368;55.002;-1.592;2023-03-16T07:10:25;27;22;
59546;PMS5003;45368;55.002;-1.592;2023-03-16T07:12:53;19;19;
59546;PMS5003;45368;55.002;-1.592;2023-03-16T07:15:19;21;19;
59546;PMS5003;45368;55.002;-1.592;2023-03-16T07:17:47;23;21;
59546;PMS5003;45368;55.002;-1.592;2023-03-16T07:20:19;20;19;
59546;PMS5003;45368;55.002;-1.592;2023-03-16T07:22:47;22;20;
59546;PMS5003;45368;55.002;-1.592;2023-03-16T07:25:14;19;18;
59546;PMS5003;45368;55.002;-1.592;2023-03-16T07:27:41;20;19;
59546;PMS5003;45368;55.002;-1.592;2023-03-16T07:30:08;28;26;
59546;PMS5003;45368;55.002;-1.592;2023-03-16T07:32:37;21;20;
59546;PMS5003;45368;55.002;-1.592;2023-03-16T07:35:05;24;23;
59546;PMS5003;45368;55.002;-1.592;2023-03-16T07:37:33;26;23;
59546;PMS5003;45368;55.002;-1.592;2023-03-16T07:40:01;25;24;
59546;PMS5003;45368;55.002;-1.592;2023-03-16T07:42:29;20;19;
59546;PMS5003;45368;55.002;-1.592;2023-03-16T07:44:56;23;22;
59546;PMS5003;45368;55.002;-1.592;2023-03-16T07:47:23;23;22;
59546;PMS5003;45368;55.002;-1.592;2023-03-16T07:49:51;19;18;
59546;PMS5003;45368;55.002;-1.592;2023-03-16T07:52:18;18;18;
59546;PMS5003;45368;55.002;-1.592;2023-03-16T07:54:45;20;19;
59546;PMS5003;45368;55.002;-1.592;2023-03-16T07:57:12;18;16;
59546;PMS5003;45368;55.002;-1.592;2023-03-16T07:59:39;21;20;
59546;PMS5003;45368;55.002;-1.592;2023-03-16T08:02:09;16;15;
59546;PMS5003;45368;55.002;-1.592;2023-03-16T08:04:38;17;15;
59546;PMS5003;45368;55.002;-1.592;2023-03-16T08:07:05;15;14;
59546;PMS5003;45368;55.002;-1.592;2023-03-16T08:09:32;17;15;
59546;PMS5003;45368;55.002;-1.592;2023-03-16T08:12:00;15;14;
59546;PMS5003;45368;55.002;-1.592;2023-03-16T08:14:29;13;12;
59546;PMS5003;45368;55.002;-1.592;2023-03-16T08:16:56;14;13;
59546;PMS5003;45368;55.002;-1.592;2023-03-16T08:19:23;13;12;
59546;PMS5003;45368;55.002;-1.592;2023-03-16T08:21:50;14;13;
59546;PMS5003;45368;55.002;-1.592;2023-03-16T08:24:17;13;12;
59546;PMS5003;45368;55.002;-1.592;2023-03-16T08:26:45;10;10;
59546;PMS5003;45368;55.002;-1.592;2023-03-16T08:29:12;10;10;
59546;PMS5003;45368;55.002;-1.592;2023-03-16T08:31:40;8;7;
59546;PMS5003;45368;55.002;-1.592;2023-03-16T08:34:07;8;7;
59546;PMS5003;45368;55.002;-1.592;2023-03-16T08:36:34;8;8;
59546;PMS5003;45368;55.002;-1.592;2023-03-16T08:39:02;8;8;
59546;PMS5003;45368;55.002;-1.592;2023-03-16T08:41:30;10;7;
59546;PMS5003;45368;55.002;-1.592;2023-03-16T08:43:58;7;7;
59546;PMS5003;45368;55.002;-1.592;2023-03-16T08:46:25;5;5;
59546;PMS5003;45368;55.002;-1.592;2023-03-16T08:48:52;8;7;
59546;PMS5003;45368;55.002;-1.592;2023-03-16T08:51:21;5;5;
59546;PMS5003;45368;55.002;-1.592;2023-03-16T08:53:49;6;6;
59546;PMS5003;45368;55.002;-1.592;2023-03-16T08:56:16;5;5;
59546;PMS5003;45368;55.002;-1.592;2023-03-16T08:58:43;6;5;
59546;PMS5003;45368;55.002;-1.592;2023-03-16T09:01:10;5;5;
59546;PMS5003;45368;55.002;-1.592;2023-03-16T09:03:40;4;3;
59546;PMS5003;45368;55.002;-1.592;2023-03-16T09:06:08;4;4;
59546;PMS5003;45368;55.002;-1.592;2023-03-16T09:08:37;4;4;
59546;PMS5003;45368;55.002;-1.592;2023-03-16T09:11:05;3;3;
59546;PMS5003;45368;55.002;-1.592;2023-03-16T09:13:34;1;1;
59546;PMS5003;45368;55.002;-1.592;2023-03-16T09:16:03;4;2;
59546;PMS5003;45368;55.002;-1.592;2023-03-16T09:18:30;2;2;
59546;PMS5003;45368;55.002;-1.592;2023-03-16T09:20:58;3;3;
59546;PMS5003;45368;55.002;-1.592;2023-03-16T09:23:28;3;3;
59546;PMS5003;45368;55.002;-1.592;2023-03-16T09:25:56;3;3;
59546;PMS5003;45368;55.002;-1.592;2023-03-16T09:28:24;3;3;
59546;PMS5003;45368;55.002;-1.592;2023-03-16T09:30:51;5;5;
59546;PMS5003;45368;55.002;-1.592;2023-03-16T09:33:19;6;4;
59546;PMS5003;45368;55.002;-1.592;2023-03-16T09:35:47;3;3;
59546;PMS5003;45368;55.002;-1.592;2023-03-16T09:38:15;4;4;
59546;PMS5003;45368;55.002;-1.592;2023-03-16T09:40:43;5;5;
59546;PMS5003;45368;55.002;-1.592;2023-03-16T09:43:17;5;5;
59546;PMS5003;45368;55.002;-1.592;2023-03-16T09:45:59;5;4;
59546;PMS5003;45368;55.002;-1.592;2023-03-16T09:49:02;6;6;
59546;PMS5003;45368;55.002;-1.592;2023-03-16T09:51:35;8;7;
59546;PMS5003;45368;55.002;-1.592;2023-03-16T09:54:14;8;8;
59546;PMS5003;45368;55.002;-1.592;2023-03-16T09:56:51;6;6;
59546;PMS5003;45368;55.002;-1.592;2023-03-16T09:59:19;7;6;
59546;PMS5003;45368;55.002;-1.592;2023-03-16T10:01:51;5;5;
59546;PMS5003;45368;55.002;-1.592;2023-03-16T10:04:36;5;4;
59546;PMS5003;45368;55.002;-1.592;2023-03-16T10:07:13;3;3;
59546;PMS5003;45368;55.002;-1.592;2023-03-16T10:09:53;2;2;
59546;PMS5003;45368;55.002;-1.592;2023-03-16T10:12:22;5;4;
59546;PMS5003;45368;55.002;-1.592;2023-03-16T10:15:00;8;7;
59546;PMS5003;45368;55.002;-1.592;2023-03-16T10:17:37;5;4;
59546;PMS5003;45368;55.002;-1.592;2023-03-16T10:20:12;7;7;
59546;PMS5003;45368;55.002;-1.592;2023-03-16T10:22:45;7;7;
59546;PMS5003;45368;55.002;-1.592;2023-03-16T10:25:15;8;7;
59546;PMS5003;45368;55.002;-1.592;2023-03-16T10:27:48;7;6;
59546;PMS5003;45368;55.002;-1.592;2023-03-16T10:30:19;6;6;
59546;PMS5003;45368;55.002;-1.592;2023-03-16T10:32:49;6;6;
59546;PMS5003;45368;55.002;-1.592;2023-03-16T10:35:21;6;6;
59546;PMS5003;45368;55.002;-1.592;2023-03-16T10:37:55;5;4;
59546;PMS5003;45368;55.002;-1.592;2023-03-16T10:40:23;6;5;
59546;PMS5003;45368;55.002;-1.592;2023-03-16T10:42:50;6;6;
59546;PMS5003;45368;55.002;-1.592;2023-03-16T10:45:19;5;5;
59546;PMS5003;45368;55.002;-1.592;2023-03-16T10:47:52;7;6;
59546;PMS5003;45368;55.002;-1.592;2023-03-16T10:50:29;6;6;
59546;PMS5003;45368;55.002;-1.592;2023-03-16T10:52:57;4;4;
59546;PMS5003;45368;55.002;-1.592;2023-03-16T10:55:27;4;4;
59546;PMS5003;45368;55.002;-1.592;2023-03-16T10:57:57;4;4;
59546;PMS5003;45368;55.002;-1.592;2023-03-16T11:00:25;6;5;
59546;PMS5003;45368;55.002;-1.592;2023-03-16T11:02:54;6;6;
59546;PMS5003;45368;55.002;-1.592;2023-03-16T11:05:26;8;8;
59546;PMS5003;45368;55.002;-1.592;2023-03-16T11:07:58;5;5;
59546;PMS5003;45368;55.002;-1.592;2023-03-16T11:10:28;1;1;
59546;PMS5003;45368;55.002;-1.592;2023-03-16T11:13:01;1;1;
59546;PMS5003;45368;55.002;-1.592;2023-03-16T11:15:36;4;4;
59546;PMS5003;45368;55.002;-1.592;2023-03-16T11:18:09;3;3;
59546;PMS5003;45368;55.002;-1.592;2023-03-16T11:20:48;5;4;
59546;PMS5003;45368;55.002;-1.592;2023-03-16T11:23:27;4;3;
59546;PMS5003;45368;55.002;-1.592;2023-03-16T11:25:59;6;5;
59546;PMS5003;45368;55.002;-1.592;2023-03-16T11:28:33;2;2;
59546;PMS5003;45368;55.002;-1.592;2023-03-16T11:31:07;1;1;
59546;PMS5003;45368;55.002;-1.592;2023-03-16T11:33:45;4;3;
59546;PMS5003;45368;55.002;-1.592;2023-03-16T11:36:18;3;3;
59546;PMS5003;45368;55.002;-1.592;2023-03-16T11:39:00;3;3;
59546;PMS5003;45368;55.002;-1.592;2023-03-16T11:41:38;1;1;
59546;PMS5003;45368;55.002;-1.592;2023-03-16T11:44:18;1;1;
59546;PMS5003;45368;55.002;-1.592;2023-03-16T11:46:55;2;2;
59546;PMS5003;45368;55.002;-1.592;2023-03-16T11:49:31;0;0;
59546;PMS5003;45368;55.002;-1.592;2023-03-16T11:52:10;1;1;
59546;PMS5003;45368;55.002;-1.592;2023-03-16T11:54:48;0;0;
59546;PMS5003;45368;55.002;-1.592;2023-03-16T11:57:29;1;1;
59546;PMS5003;45368;55.002;-1.592;2023-03-16T12:00:10;0;0;
59546;PMS5003;45368;55.002;-1.592;2023-03-16T12:02:50;0;0;
59546;PMS5003;45368;55.002;-1.592;2023-03-16T12:05:33;0;0;
59546;PMS5003;45368;55.002;-1.592;2023-03-16T12:08:14;0;0;
59546;PMS5003;45368;55.002;-1.592;2023-03-16T12:10:51;0;0;
59546;PMS5003;45368;55.002;-1.592;2023-03-16T12:13:28;0;0;
59546;PMS5003;45368;55.002;-1.592;2023-03-16T12:16:04;1;1;
59546;PMS5003;45368;55.002;-1.592;2023-03-16T12:18:38;1;0;
59546;PMS5003;45368;55.002;-1.592;2023-03-16T12:21:12;0;0;
59546;PMS5003;45368;55.002;-1.592;2023-03-16T12:23:47;0;0;
59546;PMS5003;45368;55.002;-1.592;2023-03-16T12:26:17;2;2;
59546;PMS5003;45368;55.002;-1.592;2023-03-16T12:28:46;1;1;
59546;PMS5003;45368;55.002;-1.592;2023-03-16T12:31:16;0;0;
59546;PMS5003;45368;55.002;-1.592;2023-03-16T12:33:51;1;1;
59546;PMS5003;45368;55.002;-1.592;2023-03-16T12:36:36;0;0;
59546;PMS5003;45368;55.002;-1.592;2023-03-16T12:39:37;2;2;
59546;PMS5003;45368;55.002;-1.592;2023-03-16T12:42:22;1;1;
59546;PMS5003;45368;55.002;-1.592;2023-03-16T12:45:07;3;3;
59546;PMS5003;45368;55.002;-1.592;2023-03-16T12:47:41;6;5;
59546;PMS5003;45368;55.002;-1.592;2023-03-16T12:50:16;3;3;
59546;PMS5003;45368;55.002;-1.592;2023-03-16T12:52:45;2;1;
59546;PMS5003;45368;55.002;-1.592;2023-03-16T12:55:15;3;2;
59546;PMS5003;45368;55.002;-1.592;2023-03-16T12:57:45;1;1;
59546;PMS5003;45368;55.002;-1.592;2023-03-16T13:00:15;1;1;
59546;PMS5003;45368;55.002;-1.592;2023-03-16T13:02:44;2;1;
59546;PMS5003;45368;55.002;-1.592;2023-03-16T13:05:28;3;2;
59546;PMS5003;45368;55.002;-1.592;2023-03-16T13:08:03;1;1;
59546;PMS5003;45368;55.002;-1.592;2023-03-16T13:10:33;1;1;
59546;PMS5003;45368;55.002;-1.592;2023-03-16T13:13:06;0;0;
59546;PMS5003;45368;55.002;-1.592;2023-03-16T13:15:35;3;2;
59546;PMS5003;45368;55.002;-1.592;2023-03-16T13:18:03;1;1;
59546;PMS5003;45368;55.002;-1.592;2023-03-16T13:20:49;1;1;
59546;PMS5003;45368;55.002;-1.592;2023-03-16T13:23:20;1;1;
59546;PMS5003;45368;55.002;-1.592;2023-03-16T13:25:57;1;1;
59546;PMS5003;45368;55.002;-1.592;2023-03-16T13:28:30;1;0;
59546;PMS5003;45368;55.002;-1.592;2023-03-16T13:31:01;0;0;
59546;PMS5003;45368;55.002;-1.592;2023-03-16T13:33:29;0;0;
59546;PMS5003;45368;55.002;-1.592;2023-03-16T13:35:58;0;0;
59546;PMS5003;45368;55.002;-1.592;2023-03-16T13:38:26;0;0;
59546;PMS5003;45368;55.002;-1.592;2023-03-16T13:40:54;1;1;
59546;PMS5003;45368;55.002;-1.592;2023-03-16T13:43:24;0;0;
59546;PMS5003;45368;55.002;-1.592;2023-03-16T13:45:53;1;0;
59546;PMS5003;45368;55.002;-1.592;2023-03-16T13:48:21;0;0;
59546;PMS5003;45368;55.002;-1.592;2023-03-16T13:50:50;0;0;
59546;PMS5003;45368;55.002;-1.592;2023-03-16T13:53:20;0;0;
59546;PMS5003;45368;55.002;-1.592;2023-03-16T13:55:48;0;0;
59546;PMS5003;45368;55.002;-1.592;2023-03-16T13:58:20;1;0;
59546;PMS5003;45368;55.002;-1.592;2023-03-16T14:00:53;0;0;
59546;PMS5003;45368;55.002;-1.592;2023-03-16T14:03:22;0;0;
59546;PMS5003;45368;55.002;-1.592;2023-03-16T14:05:56;0;0;
59546;PMS5003;45368;55.002;-1.592;2023-03-16T14:08:23;0;0;
59546;PMS5003;45368;55.002;-1.592;2023-03-16T14:10:52;0;0;
59546;PMS5003;45368;55.002;-1.592;2023-03-16T14:13:22;0;0;
59546;PMS5003;45368;55.002;-1.592;2023-03-16T14:15:56;0;0;
59546;PMS5003;45368;55.002;-1.592;2023-03-16T14:18:27;0;0;
59546;PMS5003;45368;55.002;-1.592;2023-03-16T14:21:03;0;0;
59546;PMS5003;45368;55.002;-1.592;2023-03-16T14:23:34;0;0;
59546;PMS5003;45368;55.002;-1.592;2023-03-16T14:26:03;0;0;
59546;PMS5003;45368;55.002;-1.592;2023-03-16T14:28:35;0;0;
59546;PMS5003;45368;55.002;-1.592;2023-03-16T14:31:04;0;0;
59546;PMS5003;45368;55.002;-1.592;2023-03-16T14:33:33;0;0;
59546;PMS5003;45368;55.002;-1.592;2023-03-16T14:36:06;0;0;
59546;PMS5003;45368;55.002;-1.592;2023-03-16T14:38:38;0;0;
59546;PMS5003;45368;55.002;-1.592;2023-03-16T14:41:12;0;0;
59546;PMS5003;45368;55.002;-1.592;2023-03-16T14:43:47;0;0;
59546;PMS5003;45368;55.002;-1.592;2023-03-16T14:46:23;0;0;
59546;PMS5003;45368;55.002;-1.592;2023-03-16T14:48:58;0;0;
59546;PMS5003;45368;55.002;-1.592;2023-03-16T14:51:27;0;0;
59546;PMS5003;45368;55.002;-1.592;2023-03-16T14:53:55;0;0;
59546;PMS5003;45368;55.002;-1.592;2023-03-16T14:56:29;0;0;
59546;PMS5003;45368;55.002;-1.592;2023-03-16T14:58:58;0;0;
59546;PMS5003;45368;55.002;-1.592;2023-03-16T15:01:26;0;0;
59546;PMS5003;45368;55.002;-1.592;2023-03-16T15:03:54;0;0;
59546;PMS5003;45368;55.002;-1.592;2023-03-16T15:06:21;1;0;
59546;PMS5003;45368;55.002;-1.592;2023-03-16T15:08:49;0;0;
59546;PMS5003;45368;55.002;-1.592;2023-03-16T15:11:16;0;0;
59546;PMS5003;45368;55.002;-1.592;2023-03-16T15:13:43;0;0;
59546;PMS5003;45368;55.002;-1.592;2023-03-16T15:16:11;0;0;
59546;PMS5003;45368;55.002;-1.592;2023-03-16T15:18:39;0;0;
59546;PMS5003;45368;55.002;-1.592;2023-03-16T15:21:08;0;0;
59546;PMS5003;45368;55.002;-1.592;2023-03-16T15:23:38;0;0;
59546;PMS5003;45368;55.002;-1.592;2023-03-16T15:26:07;0;0;
59546;PMS5003;45368;55.002;-1.592;2023-03-16T15:28:35;0;0;
59546;PMS5003;45368;55.002;-1.592;2023-03-16T15:31:03;0;0;
59546;PMS5003;45368;55.002;-1.592;2023-03-16T15:33:30;0;0;
59546;PMS5003;45368;55.002;-1.592;2023-03-16T15:35:59;0;0;
59546;PMS5003;45368;55.002;-1.592;2023-03-16T15:38:28;0;0;
59546;PMS5003;45368;55.002;-1.592;2023-03-16T15:40:58;0;0;
59546;PMS5003;45368;55.002;-1.592;2023-03-16T15:43:26;0;0;
59546;PMS5003;45368;55.002;-1.592;2023-03-16T15:45:56;0;0;
59546;PMS5003;45368;55.002;-1.592;2023-03-16T15:48:24;0;0;
59546;PMS5003;45368;55.002;-1.592;2023-03-16T15:50:52;0;0;
59546;PMS5003;45368;55.002;-1.592;2023-03-16T15:53:23;0;0;
59546;PMS5003;45368;55.002;-1.592;2023-03-16T15:55:52;1;1;
59546;PMS5003;45368;55.002;-1.592;2023-03-16T15:58:23;0;0;
59546;PMS5003;45368;55.002;-1.592;2023-03-16T16:00:53;0;0;
59546;PMS5003;45368;55.002;-1.592;2023-03-16T16:03:22;3;2;
59546;PMS5003;45368;55.002;-1.592;2023-03-16T16:05:52;0;0;
59546;PMS5003;45368;55.002;-1.592;2023-03-16T16:08:21;2;2;
59546;PMS5003;45368;55.002;-1.592;2023-03-16T16:10:49;1;1;
59546;PMS5003;45368;55.002;-1.592;2023-03-16T16:13:18;1;1;
59546;PMS5003;45368;55.002;-1.592;2023-03-16T16:15:48;0;0;
59546;PMS5003;45368;55.002;-1.592;2023-03-16T16:18:24;1;1;
59546;PMS5003;45368;55.002;-1.592;2023-03-16T16:20:53;0;0;
59546;PMS5003;45368;55.002;-1.592;2023-03-16T16:23:20;0;0;
59546;PMS5003;45368;55.002;-1.592;2023-03-16T16:25:47;0;0;
59546;PMS5003;45368;55.002;-1.592;2023-03-16T16:28:16;1;0;
59546;PMS5003;45368;55.002;-1.592;2023-03-16T16:30:46;0;0;
59546;PMS5003;45368;55.002;-1.592;2023-03-16T16:33:30;0;0;